sensor_id;sensor_type;location;lat;lon;timestamp;P1;durP1;ratioP1;P2;durP2;ratioP2
36475;SDS011;56615;42.682;23.364;2022-08-01T00:03:28;4.90;;;2.85;;
36475;SDS011;56615;42.682;23.364;2022-08-01T00:07:05;4.93;;;2.75;;
36475;SDS011;56615;42.682;23.364;2022-08-01T00:17:38;6.82;;;4.05;;
36475;SDS011;56615;42.682;23.364;2022-08-01T00:21:06;7.90;;;4.45;;
36475;SDS011;56615;42.682;23.364;2022-08-01T00:24:33;6.55;;;4.57;;
36475;SDS011;56615;42.682;23.364;2022-08-01T00:39:30;6.78;;;4.88;;
36475;SDS011;56615;42.682;23.364;2022-08-01T00:46:53;7.07;;;4.50;;
36475;SDS011;56615;42.682;23.364;2022-08-01T01:00:45;8.23;;;5.00;;
36475;SDS011;56615;42.682;23.364;2022-08-01T01:04:14;7.75;;;4.75;;
36475;SDS011;56615;42.682;23.364;2022-08-01T01:35:41;6.35;;;4.30;;
36475;SDS011;56615;42.682;23.364;2022-08-01T01:39:17;7.25;;;4.32;;
36475;SDS011;56615;42.682;23.364;2022-08-01T01:50:23;6.55;;;3.72;;
36475;SDS011;56615;42.682;23.364;2022-08-01T01:53:59;7.20;;;3.92;;
36475;SDS011;56615;42.682;23.364;2022-08-01T01:57:27;6.88;;;3.67;;
36475;SDS011;56615;42.682;23.364;2022-08-01T02:04:02;6.57;;;3.97;;
36475;SDS011;56615;42.682;23.364;2022-08-01T02:10:41;6.15;;;3.50;;
36475;SDS011;56615;42.682;23.364;2022-08-01T02:14:21;6.45;;;3.60;;
36475;SDS011;56615;42.682;23.364;2022-08-01T02:17:55;4.75;;;3.42;;
36475;SDS011;56615;42.682;23.364;2022-08-01T02:21:27;6.38;;;3.58;;
36475;SDS011;56615;42.682;23.364;2022-08-01T02:27:28;8.10;;;3.30;;
36475;SDS011;56615;42.682;23.364;2022-08-01T02:30:20;6.10;;;3.00;;
36475;SDS011;56615;42.682;23.364;2022-08-01T02:50:06;6.68;;;2.92;;
36475;SDS011;56615;42.682;23.364;2022-08-01T02:53:05;5.15;;;2.90;;
36475;SDS011;56615;42.682;23.364;2022-08-01T03:02:22;6.03;;;3.30;;
36475;SDS011;56615;42.682;23.364;2022-08-01T03:04:54;5.97;;;3.30;;
36475;SDS011;56615;42.682;23.364;2022-08-01T03:07:30;4.50;;;3.28;;
36475;SDS011;56615;42.682;23.364;2022-08-01T03:09:59;6.38;;;3.55;;
36475;SDS011;56615;42.682;23.364;2022-08-01T03:12:29;5.20;;;3.38;;
36475;SDS011;56615;42.682;23.364;2022-08-01T03:15:21;9.32;;;3.55;;
36475;SDS011;56615;42.682;23.364;2022-08-01T03:17:53;5.63;;;3.33;;
36475;SDS011;56615;42.682;23.364;2022-08-01T03:20:37;7.15;;;3.22;;
36475;SDS011;56615;42.682;23.364;2022-08-01T03:23:26;8.93;;;3.42;;
36475;SDS011;56615;42.682;23.364;2022-08-01T03:26:23;8.23;;;3.45;;
36475;SDS011;56615;42.682;23.364;2022-08-01T03:29:17;7.25;;;3.60;;
36475;SDS011;56615;42.682;23.364;2022-08-01T03:32:14;5.13;;;2.88;;
36475;SDS011;56615;42.682;23.364;2022-08-01T03:34:45;4.90;;;3.28;;
36475;SDS011;56615;42.682;23.364;2022-08-01T03:37:53;6.88;;;3.38;;
36475;SDS011;56615;42.682;23.364;2022-08-01T03:43:46;5.13;;;3.38;;
36475;SDS011;56615;42.682;23.364;2022-08-01T03:46:19;8.50;;;3.58;;
36475;SDS011;56615;42.682;23.364;2022-08-01T03:48:58;4.95;;;3.50;;
36475;SDS011;56615;42.682;23.364;2022-08-01T03:51:36;4.93;;;3.20;;
36475;SDS011;56615;42.682;23.364;2022-08-01T03:54:44;6.55;;;3.58;;
36475;SDS011;56615;42.682;23.364;2022-08-01T03:57:14;6.40;;;3.65;;
36475;SDS011;56615;42.682;23.364;2022-08-01T03:59:45;6.73;;;3.63;;
36475;SDS011;56615;42.682;23.364;2022-08-01T04:02:26;6.03;;;3.33;;
36475;SDS011;56615;42.682;23.364;2022-08-01T04:04:54;9.00;;;3.60;;
36475;SDS011;56615;42.682;23.364;2022-08-01T04:07:49;6.32;;;3.50;;
36475;SDS011;56615;42.682;23.364;2022-08-01T04:10:23;7.90;;;3.60;;
36475;SDS011;56615;42.682;23.364;2022-08-01T04:13:22;8.65;;;4.30;;
36475;SDS011;56615;42.682;23.364;2022-08-01T04:15:53;6.15;;;3.88;;
36475;SDS011;56615;42.682;23.364;2022-08-01T04:21:28;8.45;;;3.70;;
36475;SDS011;56615;42.682;23.364;2022-08-01T04:24:08;8.20;;;3.83;;
36475;SDS011;56615;42.682;23.364;2022-08-01T04:26:43;8.80;;;3.78;;
36475;SDS011;56615;42.682;23.364;2022-08-01T04:35:44;8.93;;;3.80;;
36475;SDS011;56615;42.682;23.364;2022-08-01T04:44:41;10.57;;;3.80;;
36475;SDS011;56615;42.682;23.364;2022-08-01T09:25:55;3.00;;;1.83;;
36475;SDS011;56615;42.682;23.364;2022-08-01T09:28:40;5.80;;;2.33;;
36475;SDS011;56615;42.682;23.364;2022-08-01T09:31:18;5.45;;;2.10;;
36475;SDS011;56615;42.682;23.364;2022-08-01T09:33:54;3.90;;;1.90;;
36475;SDS011;56615;42.682;23.364;2022-08-01T09:39:46;4.90;;;1.80;;
36475;SDS011;56615;42.682;23.364;2022-08-01T09:42:41;3.17;;;1.95;;
36475;SDS011;56615;42.682;23.364;2022-08-01T09:49:12;4.38;;;1.80;;
36475;SDS011;56615;42.682;23.364;2022-08-01T09:51:48;5.18;;;1.88;;
36475;SDS011;56615;42.682;23.364;2022-08-01T09:54:28;5.55;;;2.05;;
36475;SDS011;56615;42.682;23.364;2022-08-01T09:57:20;4.45;;;1.88;;
36475;SDS011;56615;42.682;23.364;2022-08-01T10:00:00;7.15;;;2.45;;
36475;SDS011;56615;42.682;23.364;2022-08-01T10:02:55;5.38;;;2.05;;
36475;SDS011;56615;42.682;23.364;2022-08-01T10:09:43;3.42;;;1.98;;
36475;SDS011;56615;42.682;23.364;2022-08-01T10:16:35;4.43;;;2.08;;
36475;SDS011;56615;42.682;23.364;2022-08-01T10:20:09;4.70;;;2.15;;
36475;SDS011;56615;42.682;23.364;2022-08-01T10:22:38;4.25;;;2.20;;
36475;SDS011;56615;42.682;23.364;2022-08-01T10:25:20;3.20;;;2.05;;
36475;SDS011;56615;42.682;23.364;2022-08-01T10:34:55;3.67;;;2.10;;
36475;SDS011;56615;42.682;23.364;2022-08-01T10:37:22;5.25;;;2.10;;
36475;SDS011;56615;42.682;23.364;2022-08-01T10:40:18;5.88;;;2.15;;
36475;SDS011;56615;42.682;23.364;2022-08-01T10:42:50;3.45;;;2.00;;
36475;SDS011;56615;42.682;23.364;2022-08-01T10:45:32;4.57;;;2.63;;
36475;SDS011;56615;42.682;23.364;2022-08-01T10:51:11;4.85;;;2.20;;
36475;SDS011;56615;42.682;23.364;2022-08-01T10:54:04;4.70;;;2.33;;
36475;SDS011;56615;42.682;23.364;2022-08-01T10:56:39;4.47;;;2.10;;
36475;SDS011;56615;42.682;23.364;2022-08-01T10:59:22;4.72;;;2.40;;
36475;SDS011;56615;42.682;23.364;2022-08-01T11:02:29;4.82;;;2.08;;
36475;SDS011;56615;42.682;23.364;2022-08-01T11:05:09;3.50;;;2.05;;
36475;SDS011;56615;42.682;23.364;2022-08-01T11:07:52;3.50;;;2.00;;
36475;SDS011;56615;42.682;23.364;2022-08-01T11:10:36;3.42;;;2.10;;
36475;SDS011;56615;42.682;23.364;2022-08-01T11:13:54;3.13;;;2.05;;
36475;SDS011;56615;42.682;23.364;2022-08-01T11:16:54;6.90;;;2.10;;
36475;SDS011;56615;42.682;23.364;2022-08-01T11:19:22;3.25;;;1.95;;
36475;SDS011;56615;42.682;23.364;2022-08-01T11:21:59;6.50;;;2.20;;
36475;SDS011;56615;42.682;23.364;2022-08-01T11:24:54;4.32;;;2.25;;
36475;SDS011;56615;42.682;23.364;2022-08-01T11:41:31;3.70;;;2.10;;
36475;SDS011;56615;42.682;23.364;2022-08-01T11:44:29;3.40;;;2.10;;
36475;SDS011;56615;42.682;23.364;2022-08-01T11:47:57;4.68;;;2.25;;
36475;SDS011;56615;42.682;23.364;2022-08-01T11:50:34;3.88;;;2.00;;
36475;SDS011;56615;42.682;23.364;2022-08-01T11:53:06;3.28;;;2.13;;
36475;SDS011;56615;42.682;23.364;2022-08-01T11:55:34;4.40;;;2.00;;
36475;SDS011;56615;42.682;23.364;2022-08-01T11:58:07;2.78;;;1.88;;
36475;SDS011;56615;42.682;23.364;2022-08-01T12:01:01;4.55;;;2.20;;
36475;SDS011;56615;42.682;23.364;2022-08-01T12:03:54;2.80;;;1.80;;
36475;SDS011;56615;42.682;23.364;2022-08-01T12:06:28;4.20;;;2.15;;
36475;SDS011;56615;42.682;23.364;2022-08-01T12:09:41;5.82;;;2.22;;
36475;SDS011;56615;42.682;23.364;2022-08-01T12:13:12;4.32;;;1.98;;
36475;SDS011;56615;42.682;23.364;2022-08-01T12:16:34;5.43;;;2.30;;
36475;SDS011;56615;42.682;23.364;2022-08-01T12:19:28;4.90;;;2.10;;
36475;SDS011;56615;42.682;23.364;2022-08-01T12:22:13;2.83;;;2.22;;
36475;SDS011;56615;42.682;23.364;2022-08-01T12:24:49;4.88;;;2.17;;
36475;SDS011;56615;42.682;23.364;2022-08-01T12:27:45;5.25;;;2.30;;
36475;SDS011;56615;42.682;23.364;2022-08-01T12:30:15;4.63;;;2.20;;
36475;SDS011;56615;42.682;23.364;2022-08-01T12:33:00;7.45;;;2.58;;
36475;SDS011;56615;42.682;23.364;2022-08-01T12:38:42;2.80;;;2.22;;
36475;SDS011;56615;42.682;23.364;2022-08-01T12:41:26;2.60;;;2.08;;
36475;SDS011;56615;42.682;23.364;2022-08-01T12:44:31;5.75;;;2.30;;
36475;SDS011;56615;42.682;23.364;2022-08-01T12:47:26;5.18;;;2.30;;
36475;SDS011;56615;42.682;23.364;2022-08-01T12:49:56;5.57;;;2.45;;
36475;SDS011;56615;42.682;23.364;2022-08-01T12:52:36;6.90;;;2.25;;
36475;SDS011;56615;42.682;23.364;2022-08-01T12:55:58;3.70;;;2.40;;
36475;SDS011;56615;42.682;23.364;2022-08-01T12:59:29;4.55;;;2.35;;
36475;SDS011;56615;42.682;23.364;2022-08-01T13:02:20;5.43;;;2.20;;
36475;SDS011;56615;42.682;23.364;2022-08-01T13:09:18;2.65;;;2.10;;
36475;SDS011;56615;42.682;23.364;2022-08-01T13:12:51;4.30;;;2.13;;
36475;SDS011;56615;42.682;23.364;2022-08-01T13:23:21;6.82;;;2.33;;
36475;SDS011;56615;42.682;23.364;2022-08-01T13:29:54;7.45;;;2.40;;
36475;SDS011;56615;42.682;23.364;2022-08-01T13:33:24;4.78;;;2.20;;
36475;SDS011;56615;42.682;23.364;2022-08-01T13:36:58;6.07;;;2.17;;
36475;SDS011;56615;42.682;23.364;2022-08-01T13:40:23;2.45;;;1.90;;
36475;SDS011;56615;42.682;23.364;2022-08-01T13:43:43;3.88;;;2.00;;
36475;SDS011;56615;42.682;23.364;2022-08-01T13:47:10;4.13;;;2.00;;
36475;SDS011;56615;42.682;23.364;2022-08-01T13:50:34;3.33;;;2.20;;
36475;SDS011;56615;42.682;23.364;2022-08-01T13:54:14;6.38;;;2.10;;
36475;SDS011;56615;42.682;23.364;2022-08-01T13:57:21;4.78;;;2.15;;
36475;SDS011;56615;42.682;23.364;2022-08-01T13:59:50;3.15;;;2.17;;
36475;SDS011;56615;42.682;23.364;2022-08-01T14:02:17;2.78;;;2.00;;
36475;SDS011;56615;42.682;23.364;2022-08-01T14:05:17;3.70;;;2.00;;
36475;SDS011;56615;42.682;23.364;2022-08-01T14:07:54;3.92;;;2.10;;
36475;SDS011;56615;42.682;23.364;2022-08-01T14:11:16;2.88;;;2.03;;
36475;SDS011;56615;42.682;23.364;2022-08-01T14:14:24;4.38;;;2.60;;
36475;SDS011;56615;42.682;23.364;2022-08-01T14:16:51;4.10;;;2.38;;
36475;SDS011;56615;42.682;23.364;2022-08-01T14:22:31;6.18;;;2.30;;
36475;SDS011;56615;42.682;23.364;2022-08-01T14:25:39;7.20;;;2.05;;
36475;SDS011;56615;42.682;23.364;2022-08-01T14:28:06;7.30;;;2.33;;
36475;SDS011;56615;42.682;23.364;2022-08-01T14:30:39;4.30;;;2.30;;
36475;SDS011;56615;42.682;23.364;2022-08-01T14:33:09;4.72;;;1.85;;
36475;SDS011;56615;42.682;23.364;2022-08-01T14:35:38;5.57;;;2.20;;
36475;SDS011;56615;42.682;23.364;2022-08-01T14:38:13;9.38;;;5.25;;
36475;SDS011;56615;42.682;23.364;2022-08-01T14:40:47;6.43;;;3.65;;
36475;SDS011;56615;42.682;23.364;2022-08-01T14:43:19;5.75;;;2.20;;
36475;SDS011;56615;42.682;23.364;2022-08-01T14:45:45;4.53;;;2.17;;
36475;SDS011;56615;42.682;23.364;2022-08-01T14:48:16;7.78;;;2.58;;
36475;SDS011;56615;42.682;23.364;2022-08-01T14:50:43;4.85;;;2.20;;
36475;SDS011;56615;42.682;23.364;2022-08-01T14:53:17;3.92;;;2.42;;
36475;SDS011;56615;42.682;23.364;2022-08-01T14:55:51;4.25;;;2.30;;
36475;SDS011;56615;42.682;23.364;2022-08-01T14:58:18;5.05;;;2.10;;
36475;SDS011;56615;42.682;23.364;2022-08-01T15:01:05;3.80;;;2.22;;
36475;SDS011;56615;42.682;23.364;2022-08-01T15:03:38;5.47;;;2.20;;
36475;SDS011;56615;42.682;23.364;2022-08-01T15:06:41;2.78;;;1.98;;
36475;SDS011;56615;42.682;23.364;2022-08-01T15:09:10;6.60;;;2.70;;
36475;SDS011;56615;42.682;23.364;2022-08-01T15:11:36;2.90;;;1.80;;
36475;SDS011;56615;42.682;23.364;2022-08-01T15:14:09;4.35;;;2.13;;
36475;SDS011;56615;42.682;23.364;2022-08-01T15:16:54;5.20;;;1.77;;
36475;SDS011;56615;42.682;23.364;2022-08-01T15:19:22;2.35;;;1.80;;
36475;SDS011;56615;42.682;23.364;2022-08-01T15:21:48;6.93;;;2.08;;
36475;SDS011;56615;42.682;23.364;2022-08-01T15:24:15;3.03;;;2.15;;
36475;SDS011;56615;42.682;23.364;2022-08-01T15:26:41;5.28;;;2.20;;
36475;SDS011;56615;42.682;23.364;2022-08-01T15:29:07;3.80;;;1.98;;
36475;SDS011;56615;42.682;23.364;2022-08-01T15:31:33;3.60;;;1.90;;
36475;SDS011;56615;42.682;23.364;2022-08-01T15:34:00;3.63;;;1.75;;
36475;SDS011;56615;42.682;23.364;2022-08-01T15:36:26;3.03;;;1.60;;
36475;SDS011;56615;42.682;23.364;2022-08-01T15:38:52;2.40;;;1.85;;
36475;SDS011;56615;42.682;23.364;2022-08-01T15:41:28;3.15;;;1.83;;
36475;SDS011;56615;42.682;23.364;2022-08-01T15:43:55;3.08;;;1.92;;
36475;SDS011;56615;42.682;23.364;2022-08-01T15:46:22;2.45;;;1.85;;
36475;SDS011;56615;42.682;23.364;2022-08-01T15:48:50;3.92;;;2.50;;
36475;SDS011;56615;42.682;23.364;2022-08-01T15:51:20;5.32;;;2.15;;
36475;SDS011;56615;42.682;23.364;2022-08-01T15:53:47;2.97;;;2.00;;
36475;SDS011;56615;42.682;23.364;2022-08-01T15:56:13;3.53;;;1.70;;
36475;SDS011;56615;42.682;23.364;2022-08-01T15:58:39;4.22;;;1.73;;
36475;SDS011;56615;42.682;23.364;2022-08-01T16:01:05;3.67;;;2.25;;
36475;SDS011;56615;42.682;23.364;2022-08-01T16:03:32;4.68;;;2.15;;
36475;SDS011;56615;42.682;23.364;2022-08-01T16:05:59;5.68;;;2.38;;
36475;SDS011;56615;42.682;23.364;2022-08-01T16:09:01;4.80;;;2.20;;
36475;SDS011;56615;42.682;23.364;2022-08-01T16:12:23;3.40;;;2.17;;
36475;SDS011;56615;42.682;23.364;2022-08-01T16:14:58;4.57;;;2.60;;
36475;SDS011;56615;42.682;23.364;2022-08-01T16:17:43;5.53;;;2.40;;
36475;SDS011;56615;42.682;23.364;2022-08-01T16:20:10;6.47;;;2.75;;
36475;SDS011;56615;42.682;23.364;2022-08-01T16:22:37;5.65;;;2.60;;
36475;SDS011;56615;42.682;23.364;2022-08-01T16:25:27;5.10;;;2.25;;
36475;SDS011;56615;42.682;23.364;2022-08-01T16:28:54;5.15;;;3.00;;
36475;SDS011;56615;42.682;23.364;2022-08-01T16:32:06;7.30;;;2.50;;
36475;SDS011;56615;42.682;23.364;2022-08-01T16:35:37;5.88;;;2.40;;
36475;SDS011;56615;42.682;23.364;2022-08-01T16:38:26;5.25;;;2.60;;
36475;SDS011;56615;42.682;23.364;2022-08-01T16:41:17;6.15;;;2.70;;
36475;SDS011;56615;42.682;23.364;2022-08-01T16:45:16;7.18;;;3.10;;
36475;SDS011;56615;42.682;23.364;2022-08-01T16:52:00;4.78;;;2.70;;
36475;SDS011;56615;42.682;23.364;2022-08-01T16:55:31;6.80;;;3.28;;
36475;SDS011;56615;42.682;23.364;2022-08-01T16:58:29;6.07;;;2.80;;
36475;SDS011;56615;42.682;23.364;2022-08-01T17:01:37;8.20;;;3.28;;
36475;SDS011;56615;42.682;23.364;2022-08-01T17:04:49;6.47;;;2.42;;
36475;SDS011;56615;42.682;23.364;2022-08-01T17:07:35;5.75;;;2.17;;
36475;SDS011;56615;42.682;23.364;2022-08-01T17:10:38;4.68;;;2.10;;
36475;SDS011;56615;42.682;23.364;2022-08-01T17:13:27;6.22;;;2.30;;
36475;SDS011;56615;42.682;23.364;2022-08-01T17:16:04;5.07;;;2.30;;
36475;SDS011;56615;42.682;23.364;2022-08-01T17:19:05;5.93;;;2.20;;
36475;SDS011;56615;42.682;23.364;2022-08-01T17:21:58;3.08;;;2.10;;
36475;SDS011;56615;42.682;23.364;2022-08-01T17:24:38;4.18;;;2.38;;
36475;SDS011;56615;42.682;23.364;2022-08-01T17:27:18;5.38;;;1.95;;
36475;SDS011;56615;42.682;23.364;2022-08-01T17:29:47;6.07;;;2.20;;
36475;SDS011;56615;42.682;23.364;2022-08-01T17:32:15;3.53;;;1.92;;
36475;SDS011;56615;42.682;23.364;2022-08-01T17:34:48;4.63;;;2.40;;
36475;SDS011;56615;42.682;23.364;2022-08-01T17:37:24;2.85;;;1.77;;
36475;SDS011;56615;42.682;23.364;2022-08-01T17:39:52;2.35;;;1.80;;
36475;SDS011;56615;42.682;23.364;2022-08-01T17:42:26;6.88;;;2.50;;
36475;SDS011;56615;42.682;23.364;2022-08-01T17:45:43;7.75;;;2.28;;
36475;SDS011;56615;42.682;23.364;2022-08-01T17:48:36;5.07;;;2.00;;
36475;SDS011;56615;42.682;23.364;2022-08-01T17:51:03;4.32;;;1.95;;
36475;SDS011;56615;42.682;23.364;2022-08-01T17:53:38;5.07;;;2.53;;
36475;SDS011;56615;42.682;23.364;2022-08-01T17:56:29;6.30;;;2.60;;
36475;SDS011;56615;42.682;23.364;2022-08-01T17:59:12;5.32;;;2.20;;
36475;SDS011;56615;42.682;23.364;2022-08-01T18:01:42;3.90;;;2.22;;
36475;SDS011;56615;42.682;23.364;2022-08-01T18:06:38;5.35;;;2.20;;
36475;SDS011;56615;42.682;23.364;2022-08-01T18:09:04;4.32;;;2.35;;
36475;SDS011;56615;42.682;23.364;2022-08-01T18:11:31;5.35;;;2.03;;
36475;SDS011;56615;42.682;23.364;2022-08-01T18:13:57;4.15;;;2.10;;
36475;SDS011;56615;42.682;23.364;2022-08-01T18:16:24;7.88;;;2.42;;
36475;SDS011;56615;42.682;23.364;2022-08-01T18:18:50;4.45;;;2.40;;
36475;SDS011;56615;42.682;23.364;2022-08-01T18:21:23;3.70;;;1.90;;
36475;SDS011;56615;42.682;23.364;2022-08-01T18:23:50;4.28;;;2.20;;
36475;SDS011;56615;42.682;23.364;2022-08-01T18:26:16;6.80;;;2.20;;
36475;SDS011;56615;42.682;23.364;2022-08-01T18:28:48;3.37;;;2.23;;
36475;SDS011;56615;42.682;23.364;2022-08-01T18:31:34;6.40;;;2.80;;
36475;SDS011;56615;42.682;23.364;2022-08-01T18:34:07;5.00;;;2.40;;
36475;SDS011;56615;42.682;23.364;2022-08-01T18:36:35;4.65;;;2.42;;
36475;SDS011;56615;42.682;23.364;2022-08-01T18:39:09;5.68;;;2.63;;
36475;SDS011;56615;42.682;23.364;2022-08-01T18:41:41;6.15;;;3.03;;
36475;SDS011;56615;42.682;23.364;2022-08-01T18:44:14;4.45;;;2.40;;
36475;SDS011;56615;42.682;23.364;2022-08-01T18:46:42;7.90;;;3.10;;
36475;SDS011;56615;42.682;23.364;2022-08-01T18:49:21;7.30;;;2.40;;
36475;SDS011;56615;42.682;23.364;2022-08-01T18:52:30;6.00;;;2.53;;
36475;SDS011;56615;42.682;23.364;2022-08-01T18:55:07;6.75;;;3.05;;
36475;SDS011;56615;42.682;23.364;2022-08-01T18:57:38;4.15;;;2.45;;
36475;SDS011;56615;42.682;23.364;2022-08-01T19:00:51;5.07;;;2.80;;
36475;SDS011;56615;42.682;23.364;2022-08-01T19:03:51;6.22;;;2.60;;
36475;SDS011;56615;42.682;23.364;2022-08-01T19:06:29;3.88;;;2.42;;
36475;SDS011;56615;42.682;23.364;2022-08-01T19:12:03;5.13;;;3.30;;
36475;SDS011;56615;42.682;23.364;2022-08-01T19:14:43;7.40;;;4.07;;
36475;SDS011;56615;42.682;23.364;2022-08-01T19:17:30;5.15;;;2.80;;
36475;SDS011;56615;42.682;23.364;2022-08-01T19:20:02;4.35;;;2.63;;
36475;SDS011;56615;42.682;23.364;2022-08-01T19:27:54;6.85;;;3.20;;
36475;SDS011;56615;42.682;23.364;2022-08-01T19:30:25;6.05;;;2.70;;
36475;SDS011;56615;42.682;23.364;2022-08-01T19:32:53;8.48;;;2.92;;
36475;SDS011;56615;42.682;23.364;2022-08-01T19:35:35;5.80;;;2.67;;
36475;SDS011;56615;42.682;23.364;2022-08-01T19:38:07;8.00;;;3.15;;
36475;SDS011;56615;42.682;23.364;2022-08-01T19:40:36;7.40;;;3.63;;
36475;SDS011;56615;42.682;23.364;2022-08-01T19:43:05;6.70;;;3.25;;
36475;SDS011;56615;42.682;23.364;2022-08-01T19:45:31;10.88;;;2.90;;
36475;SDS011;56615;42.682;23.364;2022-08-01T19:47:58;8.30;;;2.80;;
36475;SDS011;56615;42.682;23.364;2022-08-01T19:50:24;7.28;;;2.72;;
36475;SDS011;56615;42.682;23.364;2022-08-01T19:52:50;5.30;;;2.78;;
36475;SDS011;56615;42.682;23.364;2022-08-01T19:55:18;9.68;;;3.50;;
36475;SDS011;56615;42.682;23.364;2022-08-01T19:57:46;9.00;;;3.00;;
36475;SDS011;56615;42.682;23.364;2022-08-01T20:00:13;9.95;;;2.67;;
36475;SDS011;56615;42.682;23.364;2022-08-01T20:02:42;7.88;;;2.72;;
36475;SDS011;56615;42.682;23.364;2022-08-01T20:05:08;4.90;;;2.90;;
36475;SDS011;56615;42.682;23.364;2022-08-01T20:07:34;6.93;;;2.70;;
36475;SDS011;56615;42.682;23.364;2022-08-01T20:10:00;5.40;;;2.72;;
36475;SDS011;56615;42.682;23.364;2022-08-01T20:12:28;6.45;;;2.67;;
36475;SDS011;56615;42.682;23.364;2022-08-01T20:14:54;5.22;;;2.80;;
36475;SDS011;56615;42.682;23.364;2022-08-01T20:17:21;4.72;;;2.70;;
36475;SDS011;56615;42.682;23.364;2022-08-01T20:19:49;4.97;;;2.60;;
36475;SDS011;56615;42.682;23.364;2022-08-01T20:22:17;3.63;;;2.30;;
36475;SDS011;56615;42.682;23.364;2022-08-01T20:24:44;5.22;;;2.40;;
36475;SDS011;56615;42.682;23.364;2022-08-01T20:27:21;7.28;;;2.33;;
36475;SDS011;56615;42.682;23.364;2022-08-01T20:29:48;3.97;;;2.30;;
36475;SDS011;56615;42.682;23.364;2022-08-01T20:32:19;4.57;;;2.85;;
36475;SDS011;56615;42.682;23.364;2022-08-01T20:34:44;4.80;;;2.60;;
36475;SDS011;56615;42.682;23.364;2022-08-01T20:37:11;4.45;;;2.17;;
36475;SDS011;56615;42.682;23.364;2022-08-01T20:39:37;4.13;;;2.30;;
36475;SDS011;56615;42.682;23.364;2022-08-01T20:42:08;3.83;;;2.40;;
36475;SDS011;56615;42.682;23.364;2022-08-01T20:44:35;5.47;;;2.45;;
36475;SDS011;56615;42.682;23.364;2022-08-01T20:47:46;7.88;;;2.60;;
36475;SDS011;56615;42.682;23.364;2022-08-01T20:50:18;3.15;;;2.20;;
36475;SDS011;56615;42.682;23.364;2022-08-01T20:53:04;5.63;;;2.20;;
36475;SDS011;56615;42.682;23.364;2022-08-01T20:55:33;4.55;;;2.00;;
36475;SDS011;56615;42.682;23.364;2022-08-01T20:58:32;4.25;;;2.45;;
36475;SDS011;56615;42.682;23.364;2022-08-01T21:01:16;3.28;;;2.22;;
36475;SDS011;56615;42.682;23.364;2022-08-01T21:09:48;4.65;;;2.40;;
36475;SDS011;56615;42.682;23.364;2022-08-01T21:15:41;3.92;;;2.20;;
36475;SDS011;56615;42.682;23.364;2022-08-01T21:20:41;3.35;;;2.17;;
36475;SDS011;56615;42.682;23.364;2022-08-01T21:23:17;5.65;;;2.40;;
36475;SDS011;56615;42.682;23.364;2022-08-01T21:25:46;6.28;;;2.50;;
36475;SDS011;56615;42.682;23.364;2022-08-01T21:28:15;7.20;;;2.50;;
36475;SDS011;56615;42.682;23.364;2022-08-01T21:33:39;3.55;;;2.08;;
36475;SDS011;56615;42.682;23.364;2022-08-01T21:36:07;5.38;;;2.22;;
36475;SDS011;56615;42.682;23.364;2022-08-01T21:38:33;6.22;;;2.30;;
36475;SDS011;56615;42.682;23.364;2022-08-01T21:41:00;4.50;;;1.98;;
36475;SDS011;56615;42.682;23.364;2022-08-01T21:43:31;5.57;;;2.58;;
36475;SDS011;56615;42.682;23.364;2022-08-01T21:45:58;4.07;;;2.33;;
36475;SDS011;56615;42.682;23.364;2022-08-01T21:48:25;4.15;;;2.28;;
36475;SDS011;56615;42.682;23.364;2022-08-01T21:50:55;5.40;;;2.20;;
36475;SDS011;56615;42.682;23.364;2022-08-01T21:56:04;5.90;;;2.42;;
36475;SDS011;56615;42.682;23.364;2022-08-01T22:02:32;8.63;;;3.20;;
36475;SDS011;56615;42.682;23.364;2022-08-01T22:07:34;4.68;;;2.60;;
36475;SDS011;56615;42.682;23.364;2022-08-01T22:10:04;4.25;;;2.53;;
36475;SDS011;56615;42.682;23.364;2022-08-01T22:12:31;7.22;;;2.55;;
36475;SDS011;56615;42.682;23.364;2022-08-01T22:14:58;9.30;;;2.80;;
36475;SDS011;56615;42.682;23.364;2022-08-01T22:17:26;5.38;;;3.15;;
36475;SDS011;56615;42.682;23.364;2022-08-01T22:19:52;7.63;;;2.92;;
36475;SDS011;56615;42.682;23.364;2022-08-01T22:22:22;3.90;;;2.50;;
36475;SDS011;56615;42.682;23.364;2022-08-01T22:24:48;4.72;;;2.60;;
36475;SDS011;56615;42.682;23.364;2022-08-01T22:27:17;4.50;;;2.65;;
36475;SDS011;56615;42.682;23.364;2022-08-01T22:29:56;5.03;;;2.50;;
36475;SDS011;56615;42.682;23.364;2022-08-01T22:32:32;3.45;;;2.40;;
36475;SDS011;56615;42.682;23.364;2022-08-01T22:35:00;5.13;;;2.65;;
36475;SDS011;56615;42.682;23.364;2022-08-01T22:37:28;5.80;;;2.45;;
36475;SDS011;56615;42.682;23.364;2022-08-01T22:40:02;5.03;;;2.53;;
36475;SDS011;56615;42.682;23.364;2022-08-01T22:42:32;6.22;;;2.15;;
36475;SDS011;56615;42.682;23.364;2022-08-01T22:48:19;6.68;;;2.45;;
36475;SDS011;56615;42.682;23.364;2022-08-01T22:50:50;4.05;;;2.30;;
36475;SDS011;56615;42.682;23.364;2022-08-01T22:53:23;7.55;;;2.33;;
36475;SDS011;56615;42.682;23.364;2022-08-01T22:55:53;5.78;;;2.50;;
36475;SDS011;56615;42.682;23.364;2022-08-01T22:58:20;4.82;;;2.35;;
36475;SDS011;56615;42.682;23.364;2022-08-01T23:00:48;4.75;;;2.10;;
36475;SDS011;56615;42.682;23.364;2022-08-01T23:08:40;4.35;;;2.20;;
36475;SDS011;56615;42.682;23.364;2022-08-01T23:11:26;6.88;;;2.50;;
36475;SDS011;56615;42.682;23.364;2022-08-01T23:13:53;5.13;;;2.15;;
36475;SDS011;56615;42.682;23.364;2022-08-01T23:16:20;9.35;;;2.35;;
36475;SDS011;56615;42.682;23.364;2022-08-01T23:18:45;7.25;;;2.28;;
36475;SDS011;56615;42.682;23.364;2022-08-01T23:21:11;4.72;;;2.30;;
36475;SDS011;56615;42.682;23.364;2022-08-01T23:23:37;7.45;;;2.67;;
36475;SDS011;56615;42.682;23.364;2022-08-01T23:29:03;6.13;;;2.30;;
36475;SDS011;56615;42.682;23.364;2022-08-01T23:31:29;3.35;;;2.20;;
36475;SDS011;56615;42.682;23.364;2022-08-01T23:34:08;3.65;;;2.25;;
36475;SDS011;56615;42.682;23.364;2022-08-01T23:36:41;3.25;;;2.00;;
36475;SDS011;56615;42.682;23.364;2022-08-01T23:39:15;2.90;;;2.17;;
36475;SDS011;56615;42.682;23.364;2022-08-01T23:42:29;4.30;;;1.92;;
36475;SDS011;56615;42.682;23.364;2022-08-01T23:44:59;4.85;;;2.28;;
36475;SDS011;56615;42.682;23.364;2022-08-01T23:47:41;3.67;;;1.70;;
36475;SDS011;56615;42.682;23.364;2022-08-01T23:50:19;3.75;;;2.05;;
36475;SDS011;56615;42.682;23.364;2022-08-01T23:53:03;3.90;;;1.92;;
36475;SDS011;56615;42.682;23.364;2022-08-01T23:55:34;4.67;;;2.13;;
36475;SDS011;56615;42.682;23.364;2022-08-01T23:58:17;4.35;;;2.20;;
